createdAt,value
2017-08-23T00:00:50.942Z,17.10
2017-08-23T00:03:18.418Z,17.10
2017-08-23T00:05:45.981Z,17.10
2017-08-23T00:08:13.485Z,17.10
2017-08-23T00:10:40.961Z,17.00
2017-08-23T00:13:09.229Z,16.90
2017-08-23T00:15:36.723Z,16.90
2017-08-23T00:18:04.201Z,16.70
2017-08-23T00:20:31.701Z,16.70
2017-08-23T00:22:59.173Z,16.80
2017-08-23T00:25:27.434Z,16.80
2017-08-23T00:27:54.925Z,16.80
2017-08-23T00:30:22.406Z,16.70
2017-08-23T00:32:49.906Z,16.70
2017-08-23T00:35:17.773Z,16.60
2017-08-23T00:37:45.243Z,16.70
2017-08-23T00:40:13.548Z,16.70
2017-08-23T00:42:41.119Z,16.70
2017-08-23T00:45:08.690Z,16.70
2017-08-23T00:47:36.217Z,16.70
2017-08-23T00:50:03.713Z,16.60
2017-08-23T00:52:31.193Z,16.50
2017-08-23T00:54:58.661Z,16.40
2017-08-23T00:57:26.928Z,16.30
2017-08-23T00:59:54.617Z,16.20
2017-08-23T01:02:22.088Z,16.20
2017-08-23T01:04:49.580Z,16.10
2017-08-23T01:07:17.049Z,16.00
2017-08-23T01:09:44.521Z,16.00
2017-08-23T01:12:12.014Z,16.00
2017-08-23T01:14:39.493Z,16.00
2017-08-23T01:17:06.966Z,16.00
2017-08-23T01:19:34.462Z,15.90
2017-08-23T01:22:01.933Z,15.90
2017-08-23T01:24:29.466Z,15.90
2017-08-23T01:26:57.729Z,16.00
2017-08-23T01:29:25.210Z,15.90
2017-08-23T01:31:53.441Z,16.00
2017-08-23T01:34:21.337Z,16.00
2017-08-23T01:36:48.809Z,16.00
2017-08-23T01:39:17.049Z,16.10
2017-08-23T01:41:44.537Z,16.10
2017-08-23T01:44:12.022Z,16.10
2017-08-23T01:46:39.493Z,16.10
2017-08-23T01:49:06.985Z,16.10
2017-08-23T01:51:34.464Z,16.10
2017-08-23T01:54:01.937Z,16.10
2017-08-23T01:56:29.473Z,16.10
2017-08-23T01:58:57.044Z,16.20
2017-08-23T02:01:24.513Z,16.20
2017-08-23T02:03:52.013Z,16.20
2017-08-23T02:06:20.254Z,16.10
2017-08-23T02:08:47.725Z,16.10
2017-08-23T02:11:15.541Z,16.10
2017-08-23T02:13:43.012Z,16.00
2017-08-23T02:16:11.245Z,15.90
2017-08-23T02:18:38.741Z,15.90
2017-08-23T02:21:06.213Z,15.90
2017-08-23T02:23:33.681Z,15.80
2017-08-23T02:26:01.174Z,15.70
2017-08-23T02:28:28.646Z,15.60
2017-08-23T02:30:56.117Z,15.60
2017-08-23T02:33:23.610Z,15.50
2017-08-23T02:35:51.085Z,15.50
2017-08-23T02:38:18.561Z,15.40
2017-08-23T02:40:46.064Z,15.30
2017-08-23T02:43:13.532Z,15.30
2017-08-23T02:45:40.997Z,15.20
2017-08-23T02:48:08.559Z,15.10
2017-08-23T02:50:36.033Z,15.00
2017-08-23T02:53:03.575Z,14.90
2017-08-23T02:55:31.070Z,14.90
2017-08-23T02:57:58.537Z,14.80
2017-08-23T03:00:26.010Z,14.80
2017-08-23T03:02:53.512Z,14.80
2017-08-23T03:05:20.981Z,14.70
2017-08-23T03:07:48.452Z,14.60
2017-08-23T03:10:16.249Z,14.60
2017-08-23T03:12:44.485Z,14.40
2017-08-23T03:15:11.962Z,14.40
2017-08-23T03:17:39.457Z,14.40
2017-08-23T03:20:06.926Z,14.40
2017-08-23T03:22:34.402Z,14.40
2017-08-23T03:25:02.157Z,14.30
2017-08-23T03:27:29.625Z,14.20
2017-08-23T03:29:57.097Z,14.20
2017-08-23T03:32:24.593Z,14.20
2017-08-23T03:34:52.075Z,14.20
2017-08-23T03:37:19.550Z,14.20
2017-08-23T03:39:47.049Z,14.10
2017-08-23T03:42:14.521Z,14.10
2017-08-23T03:44:42.768Z,13.90
2017-08-23T03:47:10.257Z,13.80
2017-08-23T03:49:37.734Z,13.80
2017-08-23T03:52:05.206Z,13.80
2017-08-23T03:54:32.698Z,13.70
2017-08-23T03:57:00.173Z,13.60
2017-08-23T03:59:27.642Z,13.40
2017-08-23T04:01:55.908Z,13.40
2017-08-23T04:04:23.389Z,13.40
2017-08-23T04:06:50.864Z,13.50
2017-08-23T04:09:18.360Z,13.50
2017-08-23T04:11:45.833Z,13.60
2017-08-23T04:14:14.073Z,13.80
2017-08-23T04:16:41.604Z,13.80
2017-08-23T04:19:09.075Z,13.80
2017-08-23T04:21:36.545Z,13.80
2017-08-23T04:24:04.036Z,13.90
2017-08-23T04:26:31.508Z,13.90
2017-08-23T04:28:59.961Z,13.90
2017-08-23T04:31:27.453Z,13.90
2017-08-23T04:33:54.926Z,13.90
2017-08-23T04:36:23.277Z,14.00
2017-08-23T04:38:51.533Z,14.00
2017-08-23T04:41:19.005Z,14.00
2017-08-23T04:43:46.473Z,14.10
2017-08-23T04:46:14.769Z,14.10
2017-08-23T04:48:42.241Z,14.10
2017-08-23T04:51:09.711Z,14.20
2017-08-23T04:53:37.202Z,14.20
2017-08-23T04:56:04.911Z,14.20
2017-08-23T04:58:32.377Z,14.30
2017-08-23T05:00:59.865Z,14.30
2017-08-23T05:03:28.101Z,14.40
2017-08-23T05:05:55.576Z,14.40
2017-08-23T05:08:23.062Z,14.40
2017-08-23T05:10:50.533Z,14.50
2017-08-23T05:13:18.770Z,14.40
2017-08-23T05:15:46.265Z,14.40
2017-08-23T05:18:14.358Z,14.40
2017-08-23T05:20:41.885Z,14.50
2017-08-23T05:23:09.373Z,14.60
2017-08-23T05:25:36.841Z,14.70
2017-08-23T05:28:04.312Z,14.80
2017-08-23T05:30:31.800Z,15.20
2017-08-23T05:32:59.269Z,15.80
2017-08-23T05:35:26.745Z,16.40
2017-08-23T05:37:54.237Z,17.00
2017-08-23T05:40:21.705Z,17.50
2017-08-23T05:42:49.177Z,17.50
2017-08-23T05:45:17.013Z,17.50
2017-08-23T05:47:44.486Z,17.50
2017-08-23T05:50:11.957Z,17.40
2017-08-23T05:52:39.445Z,17.40
2017-08-23T05:55:06.913Z,17.50
2017-08-23T05:57:34.386Z,17.30
2017-08-23T06:00:01.881Z,17.00
2017-08-23T06:02:29.353Z,16.70
2017-08-23T06:04:56.826Z,16.80
2017-08-23T06:07:24.628Z,16.80
2017-08-23T06:09:52.109Z,17.00
2017-08-23T06:12:19.581Z,17.10
2017-08-23T06:14:47.081Z,17.30
2017-08-23T06:17:14.865Z,17.40
2017-08-23T06:19:42.337Z,17.50
2017-08-23T06:22:09.835Z,17.70
2017-08-23T06:24:37.309Z,17.70
2017-08-23T06:27:04.812Z,17.80
2017-08-23T06:29:32.301Z,17.70
2017-08-23T06:31:59.773Z,17.70
2017-08-23T06:34:27.245Z,17.80
2017-08-23T06:36:54.741Z,17.80
2017-08-23T06:39:22.208Z,17.90
2017-08-23T06:41:49.945Z,18.00
2017-08-23T06:44:17.450Z,18.00
2017-08-23T06:46:44.921Z,18.10
2017-08-23T06:49:12.621Z,18.10
2017-08-23T06:51:40.121Z,18.10
2017-08-23T06:54:07.589Z,18.20
2017-08-23T06:56:35.061Z,18.40
2017-08-23T06:59:02.553Z,18.40
2017-08-23T07:01:30.029Z,18.40
2017-08-23T07:03:57.500Z,18.60
2017-08-23T07:06:24.993Z,18.80
2017-08-23T07:08:52.465Z,19.00
2017-08-23T07:11:19.937Z,19.20
2017-08-23T07:13:47.430Z,19.60
2017-08-23T07:16:14.901Z,20.10
2017-08-23T07:18:42.373Z,20.50
2017-08-23T07:21:10.638Z,21.30
2017-08-23T07:23:38.872Z,21.80
2017-08-23T07:26:06.341Z,21.80
2017-08-23T07:28:33.829Z,22.20
2017-08-23T07:31:01.301Z,22.60
2017-08-23T07:33:28.805Z,23.10
2017-08-23T07:35:56.304Z,23.40
2017-08-23T07:38:23.774Z,23.40
2017-08-23T07:40:52.009Z,23.70
2017-08-23T07:43:19.501Z,23.70
2017-08-23T07:45:47.738Z,24.00
2017-08-23T07:48:15.217Z,24.00
2017-08-23T07:50:42.713Z,24.00
2017-08-23T07:53:10.185Z,24.60
2017-08-23T07:55:37.656Z,25.10
2017-08-23T07:58:05.145Z,24.20
2017-08-23T08:00:32.613Z,24.10
2017-08-23T08:03:00.085Z,24.10
2017-08-23T08:05:27.582Z,24.00
2017-08-23T08:07:55.058Z,23.60
2017-08-23T08:10:22.530Z,23.60
2017-08-23T08:12:50.021Z,23.60
2017-08-23T08:15:17.801Z,24.00
2017-08-23T08:17:45.317Z,23.70
2017-08-23T08:20:12.821Z,23.80
2017-08-23T08:22:40.292Z,23.70
2017-08-23T08:25:07.764Z,24.10
2017-08-23T08:27:35.344Z,24.60
2017-08-23T08:30:02.814Z,24.60
2017-08-23T08:32:30.298Z,24.40
2017-08-23T08:34:57.813Z,24.90
2017-08-23T08:37:25.285Z,25.00
2017-08-23T08:39:52.752Z,24.40
2017-08-23T08:42:20.244Z,24.80
2017-08-23T08:44:47.721Z,24.20
2017-08-23T08:47:15.189Z,24.60
2017-08-23T08:49:42.680Z,24.60
2017-08-23T08:52:10.153Z,24.70
2017-08-23T08:54:37.924Z,24.50
2017-08-23T08:57:05.429Z,25.10
2017-08-23T08:59:32.902Z,25.30
2017-08-23T09:02:00.374Z,25.10
2017-08-23T09:04:27.865Z,25.50
2017-08-23T09:06:55.332Z,24.60
2017-08-23T09:09:22.804Z,25.20
2017-08-23T09:11:50.294Z,25.10
2017-08-23T09:14:18.529Z,25.80
2017-08-23T09:16:46.015Z,25.80
2017-08-23T09:19:13.575Z,26.00
2017-08-23T09:21:41.813Z,26.20
2017-08-23T09:24:09.285Z,26.20
2017-08-23T09:26:36.785Z,26.60
2017-08-23T09:29:04.253Z,26.70
2017-08-23T09:31:31.725Z,26.20
2017-08-23T09:33:59.225Z,26.70
2017-08-23T09:36:26.694Z,26.80
2017-08-23T09:38:54.170Z,26.50
2017-08-23T09:41:21.672Z,27.10
2017-08-23T09:43:49.141Z,26.80
2017-08-23T09:46:16.868Z,27.10
2017-08-23T09:48:44.366Z,27.00
2017-08-23T09:51:12.088Z,27.20
2017-08-23T09:53:39.561Z,26.70
2017-08-23T09:56:07.057Z,26.80
2017-08-23T09:58:34.529Z,26.40
2017-08-23T10:01:02.769Z,27.40
2017-08-23T10:03:30.261Z,27.30
2017-08-23T10:05:57.734Z,27.30
2017-08-23T10:08:25.205Z,27.70
2017-08-23T10:10:52.705Z,28.30
2017-08-23T10:13:20.177Z,28.00
2017-08-23T10:15:47.644Z,27.80
2017-08-23T10:18:15.911Z,27.90
2017-08-23T10:20:43.389Z,27.90
2017-08-23T10:23:10.870Z,28.00
2017-08-23T10:25:38.361Z,28.80
2017-08-23T10:28:06.769Z,29.40
2017-08-23T10:30:34.245Z,28.90
2017-08-23T10:33:01.732Z,29.70
2017-08-23T10:35:29.228Z,28.50
2017-08-23T10:37:56.709Z,29.60
2017-08-23T10:40:26.009Z,29.20
2017-08-23T10:42:53.488Z,29.20
2017-08-23T10:45:20.965Z,28.90
2017-08-23T10:47:48.461Z,29.20
2017-08-23T10:50:15.930Z,30.10
2017-08-23T10:52:44.166Z,29.20
2017-08-23T10:55:11.659Z,29.10
2017-08-23T10:57:39.897Z,29.00
2017-08-23T11:00:07.369Z,28.90
2017-08-23T11:02:34.866Z,29.70
2017-08-23T11:05:02.341Z,30.50
2017-08-23T11:07:29.813Z,30.00
2017-08-23T11:09:57.309Z,30.00
2017-08-23T11:12:24.779Z,29.90
2017-08-23T11:14:52.257Z,29.70
2017-08-23T11:17:20.032Z,30.10
2017-08-23T11:19:47.502Z,29.60
2017-08-23T11:22:15.237Z,30.30
2017-08-23T11:24:42.734Z,31.00
2017-08-23T11:27:10.221Z,31.50
2017-08-23T11:29:37.691Z,31.20
2017-08-23T11:32:05.185Z,31.00
2017-08-23T11:34:32.653Z,30.20
2017-08-23T11:37:00.121Z,30.60
2017-08-23T11:39:27.612Z,30.90
2017-08-23T11:41:55.081Z,31.40
2017-08-23T11:44:22.553Z,31.00
2017-08-23T11:46:50.045Z,31.20
2017-08-23T11:49:17.513Z,31.00
2017-08-23T11:51:44.985Z,31.10
2017-08-23T11:54:12.478Z,31.50
2017-08-23T11:56:40.005Z,31.80
2017-08-23T11:59:07.480Z,32.50
2017-08-23T12:01:35.743Z,31.20
2017-08-23T12:04:03.980Z,31.40
2017-08-23T12:06:31.450Z,31.40
2017-08-23T12:08:58.945Z,32.40
2017-08-23T12:11:26.418Z,31.50
2017-08-23T12:13:53.889Z,30.70
2017-08-23T12:16:21.385Z,30.70
2017-08-23T12:18:48.852Z,31.10
2017-08-23T12:21:16.569Z,32.30
2017-08-23T12:23:44.122Z,31.00
2017-08-23T12:26:11.637Z,31.20
2017-08-23T12:28:39.105Z,30.90
2017-08-23T12:31:07.361Z,31.50
2017-08-23T12:33:34.834Z,31.40
2017-08-23T12:36:02.306Z,31.90
2017-08-23T12:38:29.797Z,31.90
2017-08-23T12:40:57.270Z,32.40
2017-08-23T12:43:24.752Z,31.90
2017-08-23T12:45:52.255Z,32.80
2017-08-23T12:48:20.021Z,33.70
2017-08-23T12:50:47.509Z,33.70
2017-08-23T12:53:15.009Z,33.10
2017-08-23T12:55:42.477Z,32.60
2017-08-23T12:58:09.946Z,32.50
2017-08-23T13:00:37.652Z,32.60
2017-08-23T13:03:05.121Z,33.30
2017-08-23T13:05:32.613Z,33.40
2017-08-23T13:08:00.109Z,32.60
2017-08-23T13:10:27.576Z,32.90
2017-08-23T13:12:55.045Z,32.80
2017-08-23T13:15:22.537Z,32.70
2017-08-23T13:17:50.009Z,33.20
2017-08-23T13:20:17.481Z,32.80
2017-08-23T13:22:44.975Z,32.30
2017-08-23T13:25:12.446Z,30.40
2017-08-23T13:27:39.922Z,29.60
2017-08-23T13:30:07.864Z,30.10
2017-08-23T13:32:35.353Z,30.60
2017-08-23T13:35:02.878Z,30.70
2017-08-23T13:37:31.405Z,30.30
2017-08-23T13:39:58.882Z,30.30
2017-08-23T13:42:26.357Z,30.30
2017-08-23T13:44:53.854Z,30.40
2017-08-23T13:47:21.326Z,30.00
2017-08-23T13:49:48.798Z,29.60
2017-08-23T13:52:16.290Z,29.30
2017-08-23T13:54:43.790Z,29.00
2017-08-23T13:57:11.261Z,28.70
2017-08-23T13:59:38.753Z,28.40
2017-08-23T14:02:06.221Z,28.00
2017-08-23T14:04:33.689Z,28.00
2017-08-23T14:07:01.966Z,27.80
2017-08-23T14:09:29.445Z,27.80
2017-08-23T14:11:56.917Z,27.80
2017-08-23T14:14:24.421Z,27.70
2017-08-23T14:16:51.893Z,27.60
2017-08-23T14:19:20.137Z,27.50
2017-08-23T14:21:47.634Z,27.50
2017-08-23T14:24:16.021Z,27.60
2017-08-23T14:26:44.257Z,27.50
2017-08-23T14:29:11.749Z,27.50
2017-08-23T14:31:39.221Z,27.50
2017-08-23T14:34:06.690Z,27.40
2017-08-23T14:36:34.181Z,27.30
2017-08-23T14:39:01.654Z,27.30
2017-08-23T14:41:29.124Z,27.40
2017-08-23T14:43:56.681Z,27.30
2017-08-23T14:46:24.157Z,27.40
2017-08-23T14:48:51.694Z,27.30
2017-08-23T14:51:19.190Z,27.40
2017-08-23T14:53:46.660Z,27.40
2017-08-23T14:56:14.130Z,27.50
2017-08-23T14:58:41.621Z,27.60
2017-08-23T15:01:09.093Z,27.60
2017-08-23T15:03:36.787Z,27.50
2017-08-23T15:06:04.298Z,27.40
2017-08-23T15:08:32.537Z,27.20
2017-08-23T15:11:00.006Z,27.20
2017-08-23T15:13:27.493Z,27.30
2017-08-23T15:15:55.738Z,27.40
2017-08-23T15:18:23.210Z,27.30
2017-08-23T15:20:51.029Z,27.30
2017-08-23T15:23:18.504Z,27.30
2017-08-23T15:25:45.985Z,27.30
2017-08-23T15:28:13.481Z,27.40
2017-08-23T15:30:40.970Z,27.40
2017-08-23T15:33:08.446Z,27.30
2017-08-23T15:35:35.937Z,27.30
2017-08-23T15:38:03.412Z,27.30
2017-08-23T15:40:30.881Z,27.30
2017-08-23T15:42:58.377Z,27.40
2017-08-23T15:45:25.850Z,27.40
2017-08-23T15:47:53.322Z,27.30
2017-08-23T15:50:20.814Z,27.30
2017-08-23T15:52:48.286Z,27.30
2017-08-23T15:55:15.757Z,27.30
2017-08-23T15:57:43.328Z,27.30
2017-08-23T16:00:10.805Z,27.20
2017-08-23T16:02:38.278Z,27.00
2017-08-23T16:05:05.773Z,27.00
2017-08-23T16:07:33.245Z,27.00
2017-08-23T16:10:00.724Z,27.00
2017-08-23T16:12:28.217Z,26.90
2017-08-23T16:14:55.701Z,26.90
2017-08-23T16:17:23.220Z,26.80
2017-08-23T16:19:50.726Z,26.90
2017-08-23T16:22:18.268Z,26.90
2017-08-23T16:24:45.741Z,26.90
2017-08-23T16:27:13.239Z,26.90
2017-08-23T16:29:40.718Z,26.90
2017-08-23T16:32:08.188Z,26.90
2017-08-23T16:34:36.113Z,26.80
2017-08-23T16:37:04.354Z,26.80
2017-08-23T16:39:31.829Z,26.80
2017-08-23T16:41:59.317Z,26.80
2017-08-23T16:44:26.793Z,26.70
2017-08-23T16:46:54.273Z,26.70
2017-08-23T16:49:21.789Z,26.70
2017-08-23T16:51:50.033Z,26.60
2017-08-23T16:54:17.548Z,26.60
2017-08-23T16:56:45.041Z,26.60
2017-08-23T16:59:12.509Z,26.60
2017-08-23T17:01:39.982Z,26.60
2017-08-23T17:04:08.254Z,26.40
2017-08-23T17:06:35.729Z,26.40
2017-08-23T17:09:03.198Z,26.30
2017-08-23T17:11:30.700Z,26.30
2017-08-23T17:13:58.172Z,26.20
2017-08-23T17:16:25.645Z,26.20
2017-08-23T17:18:53.913Z,26.00
2017-08-23T17:21:21.389Z,26.00
2017-08-23T17:23:49.638Z,25.80
2017-08-23T17:26:17.153Z,25.80
2017-08-23T17:28:44.707Z,25.70
2017-08-23T17:31:12.197Z,25.50
2017-08-23T17:33:39.690Z,25.40
2017-08-23T17:36:07.993Z,25.00
2017-08-23T17:38:35.485Z,25.00
2017-08-23T17:41:02.978Z,24.80
2017-08-23T17:43:30.449Z,24.60
2017-08-23T17:45:57.986Z,24.60
2017-08-23T17:48:26.257Z,24.50
2017-08-23T17:50:53.969Z,24.50
2017-08-23T17:53:21.461Z,24.40
2017-08-23T17:55:48.953Z,24.30
2017-08-23T17:58:16.541Z,24.20
2017-08-23T18:00:44.178Z,24.20
2017-08-23T18:03:13.101Z,24.10
2017-08-23T18:05:40.667Z,23.90
2017-08-23T18:08:11.155Z,23.80
2017-08-23T18:10:38.809Z,23.70
2017-08-23T18:13:07.048Z,23.60
2017-08-23T18:15:34.521Z,23.50
2017-08-23T18:18:02.025Z,23.40
2017-08-23T18:20:29.498Z,23.40
2017-08-23T18:22:56.973Z,23.30
2017-08-23T18:25:24.473Z,23.20
2017-08-23T18:27:51.945Z,23.10
2017-08-23T18:30:19.413Z,23.00
2017-08-23T18:32:47.121Z,22.90
2017-08-23T18:35:14.594Z,22.80
2017-08-23T18:37:42.069Z,22.70
2017-08-23T18:40:09.566Z,22.60
2017-08-23T18:42:37.037Z,22.40
2017-08-23T18:45:04.505Z,22.20
2017-08-23T18:47:32.001Z,22.10
2017-08-23T18:50:01.346Z,22.00
2017-08-23T18:52:28.828Z,21.90
2017-08-23T18:54:56.321Z,21.70
2017-08-23T18:57:23.789Z,21.70
2017-08-23T18:59:51.591Z,21.70
2017-08-23T19:02:19.630Z,21.70
2017-08-23T19:04:47.161Z,21.60
2017-08-23T19:07:15.314Z,21.60
2017-08-23T19:09:44.110Z,21.40
2017-08-23T19:12:11.669Z,21.30
2017-08-23T19:14:39.145Z,21.20
2017-08-23T19:17:07.193Z,21.20
2017-08-23T19:19:35.753Z,21.10
2017-08-23T19:22:03.333Z,21.00
2017-08-23T19:24:31.201Z,20.90
2017-08-23T19:26:59.442Z,20.80
2017-08-23T19:29:27.598Z,20.80
2017-08-23T19:31:56.025Z,20.60
2017-08-23T19:34:23.503Z,20.60
2017-08-23T19:36:51.336Z,20.60
2017-08-23T19:39:18.829Z,20.60
2017-08-23T19:41:46.762Z,20.50
2017-08-23T19:44:14.234Z,20.50
2017-08-23T19:46:41.745Z,20.40
2017-08-23T19:49:09.217Z,20.30
2017-08-23T19:51:36.690Z,20.20
2017-08-23T19:54:04.585Z,20.20
2017-08-23T19:56:32.057Z,20.20
2017-08-23T19:58:59.821Z,20.20
2017-08-23T20:01:27.653Z,20.10
2017-08-23T20:03:55.131Z,20.10
2017-08-23T20:06:22.613Z,20.00
2017-08-23T20:08:50.105Z,19.90
2017-08-23T20:11:17.582Z,19.60
2017-08-23T20:13:45.141Z,19.50
2017-08-23T20:16:14.185Z,19.20
2017-08-23T20:18:42.237Z,19.20
2017-08-23T20:21:10.410Z,19.20
2017-08-23T20:23:38.108Z,19.20
2017-08-23T20:26:05.581Z,19.20
2017-08-23T20:28:33.058Z,19.10
2017-08-23T20:31:01.853Z,19.10
2017-08-23T20:33:30.138Z,19.10
2017-08-23T20:35:57.614Z,19.10
2017-08-23T20:38:25.457Z,19.20
2017-08-23T20:40:53.735Z,19.20
2017-08-23T20:43:21.817Z,19.20
2017-08-23T20:45:49.309Z,19.20
2017-08-23T20:48:16.781Z,19.10
2017-08-23T20:50:44.273Z,19.00
2017-08-23T20:53:11.766Z,18.90
2017-08-23T20:55:39.242Z,18.90
2017-08-23T20:58:06.977Z,18.90
2017-08-23T21:00:35.061Z,18.90
2017-08-23T21:03:02.533Z,18.80
2017-08-23T21:05:30.001Z,18.70
2017-08-23T21:07:57.493Z,18.50
2017-08-23T21:10:25.729Z,18.60
2017-08-23T21:12:53.197Z,18.50
2017-08-23T21:15:20.693Z,18.60
2017-08-23T21:17:48.165Z,18.60
2017-08-23T21:20:15.640Z,18.50
2017-08-23T21:22:43.137Z,18.50
2017-08-23T21:25:10.701Z,18.60
2017-08-23T21:27:39.013Z,18.50
2017-08-23T21:30:06.505Z,18.50
2017-08-23T21:32:34.393Z,18.50
2017-08-23T21:35:01.998Z,18.40
2017-08-23T21:37:29.494Z,18.40
2017-08-23T21:39:58.357Z,18.10
2017-08-23T21:42:26.019Z,18.10
2017-08-23T21:44:53.928Z,18.10
2017-08-23T21:47:21.398Z,18.10
2017-08-23T21:49:49.457Z,18.00
2017-08-23T21:52:17.689Z,17.90
2017-08-23T21:54:45.742Z,18.00
2017-08-23T21:57:13.230Z,18.00
2017-08-23T21:59:41.087Z,17.90
2017-08-23T22:02:08.757Z,18.00
2017-08-23T22:04:36.485Z,17.90
2017-08-23T22:07:05.378Z,17.90
2017-08-23T22:09:32.905Z,17.90
2017-08-23T22:12:01.589Z,18.00
2017-08-23T22:14:29.061Z,18.00
2017-08-23T22:16:56.540Z,18.00
2017-08-23T22:19:24.675Z,18.00
2017-08-23T22:21:52.233Z,18.10
2017-08-23T22:24:19.727Z,18.00
2017-08-23T22:26:47.609Z,18.00
2017-08-23T22:29:15.118Z,18.00
2017-08-23T22:31:42.609Z,18.00
2017-08-23T22:34:10.083Z,18.00
2017-08-23T22:36:37.584Z,17.80
2017-08-23T22:39:05.292Z,17.70
2017-08-23T22:41:32.780Z,17.60
2017-08-23T22:44:00.248Z,17.60
2017-08-23T22:46:27.720Z,17.50
2017-08-23T22:48:55.529Z,17.40
2017-08-23T22:51:22.996Z,17.40
2017-08-23T22:53:50.488Z,17.40
2017-08-23T22:56:17.969Z,17.30
2017-08-23T22:58:45.442Z,17.30
2017-08-23T23:01:12.981Z,17.20
2017-08-23T23:03:40.453Z,17.20
2017-08-23T23:06:07.969Z,17.20
2017-08-23T23:08:35.597Z,17.20
2017-08-23T23:11:03.097Z,17.10
2017-08-23T23:13:30.597Z,17.10
2017-08-23T23:15:58.069Z,17.10
2017-08-23T23:18:25.557Z,17.10
2017-08-23T23:20:53.254Z,17.00
2017-08-23T23:23:20.746Z,17.00
2017-08-23T23:25:48.253Z,17.00
2017-08-23T23:28:15.741Z,17.00
2017-08-23T23:30:43.214Z,17.00
2017-08-23T23:33:10.709Z,16.90
2017-08-23T23:35:38.177Z,16.80
2017-08-23T23:38:05.645Z,16.80
2017-08-23T23:40:33.133Z,16.80
2017-08-23T23:43:00.605Z,16.70
2017-08-23T23:45:28.093Z,16.70
2017-08-23T23:47:55.561Z,16.60
2017-08-23T23:50:23.032Z,16.60
2017-08-23T23:52:51.285Z,16.40
2017-08-23T23:55:18.761Z,16.40
2017-08-23T23:57:47.017Z,16.20
